createdAt,value
2022-12-06T00:00:38.097Z,21.00
2022-12-06T00:03:46.564Z,21.00
2022-12-06T00:06:54.732Z,21.00
2022-12-06T00:10:03.058Z,21.00
2022-12-06T00:13:11.136Z,21.00
2022-12-06T00:16:20.781Z,21.00
2022-12-06T00:19:28.941Z,21.00
2022-12-06T00:22:37.264Z,21.00
2022-12-06T00:25:45.196Z,21.00
2022-12-06T00:28:53.517Z,21.00
2022-12-06T00:32:02.735Z,21.00
2022-12-06T00:35:11.180Z,21.00
2022-12-06T00:38:18.873Z,21.00
2022-12-06T00:41:27.061Z,21.00
2022-12-06T00:44:35.097Z,21.00
2022-12-06T00:47:44.560Z,21.00
2022-12-06T00:50:52.676Z,21.00
2022-12-06T00:54:00.660Z,21.00
2022-12-06T00:57:08.848Z,20.90
2022-12-06T01:00:17.549Z,20.90
2022-12-06T01:03:29.692Z,20.90
2022-12-06T01:06:41.522Z,20.90
2022-12-06T01:09:49.541Z,20.90
2022-12-06T01:12:57.536Z,20.90
2022-12-06T01:16:07.006Z,20.90
2022-12-06T01:19:16.515Z,21.00
2022-12-06T01:22:24.718Z,21.00
2022-12-06T01:25:35.802Z,21.00
2022-12-06T01:28:44.513Z,21.00
2022-12-06T01:31:52.659Z,21.00
2022-12-06T01:35:01.989Z,21.10
2022-12-06T01:38:10.167Z,21.10
2022-12-06T01:41:18.435Z,21.10
2022-12-06T01:44:41.369Z,21.20
2022-12-06T01:47:50.042Z,21.20
2022-12-06T01:50:58.988Z,21.20
2022-12-06T01:54:09.034Z,21.20
2022-12-06T01:57:17.095Z,21.20
2022-12-06T02:00:25.549Z,21.20
2022-12-06T02:03:34.572Z,21.20
2022-12-06T02:06:43.983Z,21.20
2022-12-06T02:09:52.100Z,21.20
2022-12-06T02:13:00.238Z,21.10
2022-12-06T02:16:14.864Z,21.10
2022-12-06T02:19:42.803Z,21.10
2022-12-06T02:23:25.023Z,21.10
2022-12-06T02:26:37.579Z,21.10
2022-12-06T02:29:57.522Z,21.10
2022-12-06T02:33:07.624Z,21.10
2022-12-06T02:36:17.081Z,21.10
2022-12-06T02:39:27.356Z,21.10
2022-12-06T02:42:37.653Z,21.10
2022-12-06T02:45:47.175Z,21.00
2022-12-06T02:48:56.427Z,21.00
2022-12-06T02:52:04.731Z,21.00
2022-12-06T02:55:12.863Z,21.00
2022-12-06T02:58:20.678Z,21.00
2022-12-06T03:01:30.313Z,21.00
2022-12-06T03:04:49.022Z,21.00
2022-12-06T03:07:57.105Z,21.00
2022-12-06T03:11:05.348Z,21.00
2022-12-06T03:14:15.141Z,21.00
2022-12-06T03:17:24.730Z,21.00
2022-12-06T03:20:42.476Z,21.00
2022-12-06T03:23:50.705Z,21.00
2022-12-06T03:26:58.902Z,21.00
2022-12-06T03:30:08.732Z,21.00
2022-12-06T03:33:16.705Z,21.00
2022-12-06T03:36:26.045Z,21.00
2022-12-06T03:39:36.885Z,21.00
2022-12-06T03:42:44.813Z,21.00
2022-12-06T03:45:55.062Z,20.90
2022-12-06T03:49:03.952Z,20.90
2022-12-06T03:52:13.388Z,20.90
2022-12-06T03:55:21.347Z,20.90
2022-12-06T03:58:29.579Z,20.90
2022-12-06T04:01:37.752Z,20.90
2022-12-06T04:04:45.751Z,20.90
2022-12-06T04:07:55.098Z,20.90
2022-12-06T04:11:02.887Z,20.90
2022-12-06T04:14:11.078Z,20.90
2022-12-06T04:17:36.464Z,20.90
2022-12-06T04:21:03.624Z,20.90
2022-12-06T04:24:12.764Z,20.90
2022-12-06T04:27:38.138Z,20.90
2022-12-06T04:31:03.315Z,20.90
2022-12-06T04:34:28.981Z,20.90
2022-12-06T04:37:54.197Z,20.90
2022-12-06T04:41:03.802Z,20.90
2022-12-06T04:44:11.142Z,21.00
2022-12-06T04:47:19.017Z,21.00
2022-12-06T04:50:27.083Z,21.00
2022-12-06T04:53:34.956Z,21.00
2022-12-06T04:56:44.607Z,21.10
2022-12-06T04:59:52.651Z,21.10
2022-12-06T05:03:00.853Z,21.10
2022-12-06T05:06:09.496Z,21.10
2022-12-06T05:09:17.299Z,21.10
2022-12-06T05:12:26.505Z,21.10
2022-12-06T05:15:34.495Z,21.10
2022-12-06T05:18:42.511Z,21.10
2022-12-06T05:21:50.562Z,21.10
2022-12-06T05:24:58.365Z,21.10
2022-12-06T05:28:08.961Z,21.10
2022-12-06T05:31:17.064Z,21.10
2022-12-06T05:34:25.839Z,21.10
2022-12-06T05:37:33.851Z,21.10
2022-12-06T05:40:42.098Z,21.10
2022-12-06T05:43:51.579Z,21.10
2022-12-06T05:46:59.450Z,21.10
2022-12-06T05:50:08.752Z,21.10
2022-12-06T05:53:16.676Z,21.10
2022-12-06T05:56:24.497Z,21.00
2022-12-06T05:59:34.189Z,21.00
2022-12-06T06:02:42.394Z,21.00
2022-12-06T06:05:50.917Z,21.10
2022-12-06T06:08:58.647Z,21.00
2022-12-06T06:12:12.290Z,21.00
2022-12-06T06:15:21.903Z,21.00
2022-12-06T06:18:30.071Z,21.00
2022-12-06T06:21:38.289Z,21.00
2022-12-06T06:24:46.779Z,21.00
2022-12-06T06:27:55.527Z,21.00
2022-12-06T06:31:06.083Z,21.10
2022-12-06T06:34:13.849Z,21.10
2022-12-06T06:37:21.688Z,21.10
2022-12-06T06:40:29.657Z,21.00
2022-12-06T06:43:37.592Z,21.10
2022-12-06T06:46:47.183Z,21.10
2022-12-06T06:49:55.017Z,21.00
2022-12-06T06:53:03.051Z,21.00
2022-12-06T06:56:11.238Z,21.00
2022-12-06T06:59:19.415Z,21.00
2022-12-06T07:02:28.787Z,21.00
2022-12-06T07:05:36.960Z,21.00
2022-12-06T07:08:46.574Z,21.00
2022-12-06T07:11:55.033Z,21.00
2022-12-06T07:15:03.418Z,21.00
2022-12-06T07:18:12.771Z,20.90
2022-12-06T07:21:23.426Z,20.90
2022-12-06T07:24:31.217Z,20.90
2022-12-06T07:27:39.372Z,20.90
2022-12-06T07:30:47.470Z,20.90
2022-12-06T07:33:57.218Z,20.90
2022-12-06T07:37:06.177Z,20.80
2022-12-06T07:40:14.913Z,20.90
2022-12-06T07:43:40.498Z,20.90
2022-12-06T07:46:48.497Z,20.90
2022-12-06T07:49:58.261Z,20.90
2022-12-06T07:53:06.369Z,20.90
2022-12-06T07:56:14.290Z,20.90
2022-12-06T07:59:22.262Z,20.90
2022-12-06T08:02:30.244Z,21.00
2022-12-06T08:05:40.246Z,21.00
2022-12-06T08:08:48.111Z,21.00
2022-12-06T08:11:56.283Z,21.00
2022-12-06T08:15:04.093Z,21.00
2022-12-06T08:18:11.901Z,21.00
2022-12-06T08:21:21.446Z,21.00
2022-12-06T08:24:29.514Z,21.00
2022-12-06T08:27:37.466Z,21.00
2022-12-06T08:30:45.466Z,21.00
2022-12-06T08:33:53.471Z,21.00
2022-12-06T08:37:03.678Z,21.10
2022-12-06T08:40:12.296Z,21.10
2022-12-06T08:43:20.286Z,21.10
2022-12-06T08:46:28.411Z,21.10
2022-12-06T08:49:36.702Z,21.20
2022-12-06T08:52:46.352Z,21.20
2022-12-06T08:56:01.910Z,21.20
2022-12-06T08:59:10.450Z,21.20
2022-12-06T09:02:18.399Z,21.30
2022-12-06T09:05:26.466Z,21.30
2022-12-06T09:08:35.730Z,21.30
2022-12-06T09:11:43.814Z,21.30
2022-12-06T09:14:51.672Z,21.30
2022-12-06T09:17:59.877Z,21.30
2022-12-06T09:21:08.111Z,21.30
2022-12-06T09:24:18.649Z,21.30
2022-12-06T09:27:26.711Z,21.30
2022-12-06T09:30:34.744Z,21.30
2022-12-06T09:33:42.963Z,21.20
2022-12-06T09:36:52.395Z,21.20
2022-12-06T09:40:03.646Z,21.20
2022-12-06T09:43:20.595Z,21.20
2022-12-06T09:46:35.428Z,21.20
2022-12-06T09:49:48.173Z,21.20
2022-12-06T09:53:08.489Z,21.20
2022-12-06T09:56:20.869Z,21.20
2022-12-06T09:59:31.971Z,21.20
2022-12-06T10:02:55.084Z,21.20
2022-12-06T10:06:03.880Z,21.10
2022-12-06T10:09:24.728Z,21.10
2022-12-06T10:12:43.684Z,21.10
2022-12-06T10:15:55.358Z,21.10
2022-12-06T10:19:13.049Z,21.10
2022-12-06T10:22:28.884Z,21.10
2022-12-06T10:25:41.642Z,21.10
2022-12-06T10:28:53.787Z,21.10
2022-12-06T10:32:02.210Z,21.10
2022-12-06T10:35:18.145Z,21.10
2022-12-06T10:38:29.355Z,21.10
2022-12-06T10:41:39.626Z,21.10
2022-12-06T10:44:49.872Z,21.10
2022-12-06T10:47:56.983Z,21.10
2022-12-06T10:51:06.638Z,21.10
2022-12-06T10:54:21.416Z,21.10
2022-12-06T10:57:33.611Z,21.10
2022-12-06T11:00:48.264Z,21.10
2022-12-06T11:03:59.305Z,21.10
2022-12-06T11:07:09.653Z,21.10
2022-12-06T11:10:20.585Z,21.10
2022-12-06T11:13:32.174Z,21.10
2022-12-06T11:16:43.117Z,21.10
2022-12-06T11:19:51.591Z,21.10
2022-12-06T11:23:07.184Z,21.10
2022-12-06T11:26:22.883Z,21.10
2022-12-06T11:29:31.056Z,21.00
2022-12-06T11:32:40.932Z,21.00
2022-12-06T11:35:48.696Z,21.00
2022-12-06T11:38:56.609Z,21.00
2022-12-06T11:42:04.850Z,21.00
2022-12-06T11:45:22.743Z,21.00
2022-12-06T11:48:34.182Z,21.00
2022-12-06T11:51:42.142Z,21.00
2022-12-06T11:54:52.840Z,21.00
2022-12-06T11:58:03.367Z,21.00
2022-12-06T12:01:14.404Z,21.10
2022-12-06T12:04:41.742Z,21.10
2022-12-06T12:07:51.335Z,21.10
2022-12-06T12:10:59.936Z,21.10
2022-12-06T12:14:18.491Z,21.10
2022-12-06T12:17:29.478Z,21.10
2022-12-06T12:20:39.672Z,21.10
2022-12-06T12:23:48.013Z,21.10
2022-12-06T12:26:56.190Z,21.10
2022-12-06T12:30:27.969Z,21.10
2022-12-06T12:33:36.109Z,21.00
2022-12-06T12:36:49.563Z,21.00
2022-12-06T12:39:57.528Z,21.10
2022-12-06T12:43:06.576Z,21.10
2022-12-06T12:46:17.802Z,21.10
2022-12-06T12:49:29.375Z,21.10
2022-12-06T12:52:39.525Z,21.10
2022-12-06T12:55:47.651Z,21.10
2022-12-06T12:58:56.439Z,21.20
2022-12-06T13:02:06.740Z,21.20
2022-12-06T13:05:34.801Z,21.20
2022-12-06T13:08:44.381Z,21.30
2022-12-06T13:11:56.061Z,21.30
2022-12-06T13:15:06.062Z,21.30
2022-12-06T13:18:14.927Z,21.30
2022-12-06T13:21:25.661Z,21.30
2022-12-06T13:24:36.476Z,21.30
2022-12-06T13:27:45.048Z,21.30
2022-12-06T13:30:57.454Z,21.30
2022-12-06T13:34:07.285Z,21.30
2022-12-06T13:37:29.512Z,21.30
2022-12-06T13:40:49.426Z,21.20
2022-12-06T13:43:57.714Z,21.20
2022-12-06T13:47:38.261Z,21.30
2022-12-06T13:50:51.749Z,21.30
2022-12-06T13:54:36.730Z,21.30
2022-12-06T13:57:46.170Z,21.30
2022-12-06T14:00:54.608Z,21.30
2022-12-06T14:04:08.534Z,21.30
2022-12-06T14:10:23.333Z,21.30
2022-12-06T14:13:32.800Z,21.30
2022-12-06T14:16:43.035Z,21.30
2022-12-06T14:19:51.011Z,21.30
2022-12-06T14:22:59.029Z,21.30
2022-12-06T14:26:19.959Z,21.30
2022-12-06T14:29:29.110Z,21.20
2022-12-06T14:32:38.500Z,21.20
2022-12-06T14:35:50.671Z,21.20
2022-12-06T14:39:00.691Z,21.20
2022-12-06T14:42:34.779Z,21.20
2022-12-06T14:45:44.147Z,21.20
2022-12-06T14:49:09.704Z,21.10
2022-12-06T14:52:19.420Z,21.20
2022-12-06T14:55:27.887Z,21.10
2022-12-06T14:58:36.355Z,21.20
2022-12-06T15:01:49.839Z,21.20
2022-12-06T15:04:57.515Z,21.10
2022-12-06T15:08:30.174Z,21.10
2022-12-06T15:11:56.276Z,21.10
2022-12-06T15:15:04.752Z,21.10
2022-12-06T15:18:19.590Z,21.10
2022-12-06T15:21:27.730Z,21.10
2022-12-06T15:24:35.768Z,21.10
2022-12-06T15:27:43.905Z,21.10
2022-12-06T15:30:52.203Z,21.10
2022-12-06T15:34:01.913Z,21.10
2022-12-06T15:37:37.632Z,21.00
2022-12-06T15:40:40.600Z,21.00
2022-12-06T15:43:48.967Z,21.00
2022-12-06T15:46:57.033Z,21.00
2022-12-06T15:50:08.194Z,21.00
2022-12-06T15:53:16.616Z,21.00
2022-12-06T15:56:25.921Z,21.00
2022-12-06T15:59:33.965Z,21.00
2022-12-06T16:02:42.487Z,21.00
2022-12-06T16:05:51.727Z,21.00
2022-12-06T16:08:59.821Z,21.00
2022-12-06T16:12:08.504Z,21.00
2022-12-06T16:15:16.623Z,21.00
2022-12-06T16:18:24.825Z,21.00
2022-12-06T16:21:34.843Z,21.00
2022-12-06T16:24:42.919Z,21.10
2022-12-06T16:27:51.089Z,21.10
2022-12-06T16:30:59.315Z,21.10
2022-12-06T16:34:07.402Z,21.10
2022-12-06T16:37:17.961Z,21.20
2022-12-06T16:40:28.084Z,21.20
2022-12-06T16:43:36.256Z,21.20
2022-12-06T16:46:45.553Z,21.30
2022-12-06T16:49:53.572Z,21.30
2022-12-06T16:53:02.771Z,21.30
2022-12-06T16:56:10.860Z,21.30
2022-12-06T16:59:19.207Z,21.20
2022-12-06T17:02:27.948Z,21.30
2022-12-06T17:05:36.911Z,21.30
2022-12-06T17:08:46.427Z,21.30
2022-12-06T17:12:07.740Z,21.30
2022-12-06T17:15:16.238Z,21.30
2022-12-06T17:18:24.512Z,21.30
2022-12-06T17:21:32.696Z,21.30
2022-12-06T17:24:42.129Z,21.30
2022-12-06T17:27:51.430Z,21.30
2022-12-06T17:30:59.708Z,21.20
2022-12-06T17:34:09.163Z,21.20
2022-12-06T17:37:17.144Z,21.20
2022-12-06T17:40:26.277Z,21.20
2022-12-06T17:43:34.869Z,21.20
2022-12-06T17:46:42.966Z,21.20
2022-12-06T17:49:51.124Z,21.20
2022-12-06T17:52:59.197Z,21.20
2022-12-06T17:56:25.162Z,21.20
2022-12-06T17:59:33.601Z,21.20
2022-12-06T18:02:41.749Z,21.20
2022-12-06T18:05:49.795Z,21.20
2022-12-06T18:08:57.778Z,21.10
2022-12-06T18:12:08.976Z,21.10
2022-12-06T18:15:33.834Z,21.10
2022-12-06T18:18:42.227Z,21.10
2022-12-06T18:21:52.056Z,21.10
2022-12-06T18:25:00.230Z,21.10
2022-12-06T18:28:09.973Z,21.10
2022-12-06T18:31:18.038Z,21.10
2022-12-06T18:34:26.001Z,21.10
2022-12-06T18:37:34.125Z,21.10
2022-12-06T18:40:43.060Z,21.10
2022-12-06T18:43:52.591Z,21.10
2022-12-06T18:47:00.688Z,21.10
2022-12-06T18:50:10.454Z,21.10
2022-12-06T18:53:19.138Z,21.10
2022-12-06T18:56:27.596Z,21.10
2022-12-06T18:59:38.128Z,21.10
2022-12-06T19:02:46.295Z,21.10
2022-12-06T19:06:02.799Z,21.10
2022-12-06T19:09:14.054Z,21.10
2022-12-06T19:12:22.272Z,21.10
2022-12-06T19:15:31.759Z,21.20
2022-12-06T19:18:39.685Z,21.20
2022-12-06T19:21:47.877Z,21.20
2022-12-06T19:24:55.658Z,21.20
2022-12-06T19:28:03.584Z,21.20
2022-12-06T19:31:13.744Z,21.20
2022-12-06T19:34:22.840Z,21.30
2022-12-06T19:37:31.025Z,21.30
2022-12-06T19:40:42.006Z,21.30
2022-12-06T19:44:07.116Z,21.30
2022-12-06T19:47:16.204Z,21.30
2022-12-06T19:50:24.416Z,21.30
2022-12-06T19:53:33.894Z,21.30
2022-12-06T19:56:41.647Z,21.40
2022-12-06T19:59:50.655Z,21.40
2022-12-06T20:03:00.220Z,21.40
2022-12-06T20:06:10.225Z,21.40
2022-12-06T20:09:21.085Z,21.40
2022-12-06T20:12:28.929Z,21.40
2022-12-06T20:15:36.752Z,21.40
2022-12-06T20:18:46.065Z,21.40
2022-12-06T20:21:54.049Z,21.40
2022-12-06T20:25:02.248Z,21.40
2022-12-06T20:28:13.695Z,21.40
2022-12-06T20:31:23.138Z,21.40
2022-12-06T20:34:34.052Z,21.40
2022-12-06T20:37:42.188Z,21.40
2022-12-06T20:40:50.177Z,21.40
2022-12-06T20:43:58.237Z,21.40
2022-12-06T20:47:06.333Z,21.40
2022-12-06T20:50:16.260Z,21.40
2022-12-06T20:53:24.238Z,21.40
2022-12-06T20:56:33.550Z,21.40
2022-12-06T20:59:41.836Z,21.40
2022-12-06T21:02:49.978Z,21.50
2022-12-06T21:06:02.517Z,21.50
2022-12-06T21:09:10.456Z,21.50
2022-12-06T21:12:20.135Z,21.50
2022-12-06T21:15:27.868Z,21.50
2022-12-06T21:18:36.174Z,21.50
2022-12-06T21:21:46.864Z,21.50
2022-12-06T21:24:56.581Z,21.40
2022-12-06T21:28:04.928Z,21.40
2022-12-06T21:31:13.155Z,21.40
2022-12-06T21:34:21.067Z,21.40
2022-12-06T21:37:30.513Z,21.40
2022-12-06T21:40:38.309Z,21.40
2022-12-06T21:43:46.488Z,21.40
2022-12-06T21:46:54.731Z,21.40
2022-12-06T21:50:02.987Z,21.40
2022-12-06T21:53:12.724Z,21.40
2022-12-06T21:56:21.530Z,21.40
2022-12-06T21:59:29.440Z,21.40
2022-12-06T22:02:37.562Z,21.40
2022-12-06T22:05:45.525Z,21.40
2022-12-06T22:08:58.255Z,21.40
2022-12-06T22:12:06.787Z,21.40
2022-12-06T22:15:14.589Z,21.40
2022-12-06T22:18:22.688Z,21.40
2022-12-06T22:21:32.173Z,21.40
2022-12-06T22:24:41.507Z,21.30
2022-12-06T22:27:49.717Z,21.30
2022-12-06T22:31:08.929Z,21.30
2022-12-06T22:34:16.941Z,21.30
2022-12-06T22:37:28.483Z,21.30
2022-12-06T22:40:38.159Z,21.30
2022-12-06T22:43:46.103Z,21.30
2022-12-06T22:46:54.009Z,21.20
2022-12-06T22:50:02.124Z,21.20
2022-12-06T22:53:10.425Z,21.20
2022-12-06T22:56:19.920Z,21.20
2022-12-06T22:59:28.109Z,21.20
2022-12-06T23:02:36.091Z,21.20
2022-12-06T23:05:44.046Z,21.20
2022-12-06T23:08:53.032Z,21.20
2022-12-06T23:12:02.492Z,21.20
2022-12-06T23:15:11.256Z,21.20
2022-12-06T23:18:19.360Z,21.20
2022-12-06T23:21:28.608Z,21.10
2022-12-06T23:24:36.412Z,21.10
2022-12-06T23:27:45.849Z,21.10
2022-12-06T23:30:53.975Z,21.10
2022-12-06T23:34:03.275Z,21.10
2022-12-06T23:37:10.991Z,21.10
2022-12-06T23:40:19.281Z,21.10
2022-12-06T23:43:28.739Z,21.10
2022-12-06T23:46:37.711Z,21.10
2022-12-06T23:49:45.668Z,21.10
2022-12-06T23:52:53.795Z,21.10
2022-12-06T23:56:02.660Z,21.10
2022-12-06T23:59:14.286Z,21.10
